地図

経路データ

SID SEASON NUMBER BASIN SUBBASIN NAME ISO_TIME NATURE LAT LON WMO_WIND WMO_PRES WMO_AGENCY TRACK_TYPE DIST2LAND LANDFALL IFLAG USA_AGENCY USA_ATCF_ID USA_LAT USA_LON USA_RECORD USA_STATUS USA_WIND USA_PRES USA_SSHS USA_R34_NE USA_R34_SE USA_R34_SW USA_R34_NW USA_R50_NE USA_R50_SE USA_R50_SW USA_R50_NW USA_R64_NE USA_R64_SE USA_R64_SW USA_R64_NW USA_POCI USA_ROCI USA_RMW USA_EYE TOKYO_LAT TOKYO_LON TOKYO_GRADE TOKYO_WIND TOKYO_PRES TOKYO_R50_DIR TOKYO_R50_LONG TOKYO_R50_SHORT TOKYO_R30_DIR TOKYO_R30_LONG TOKYO_R30_SHORT TOKYO_LAND CMA_LAT CMA_LON CMA_CAT CMA_WIND CMA_PRES HKO_LAT HKO_LON HKO_CAT HKO_WIND HKO_PRES NEWDELHI_LAT NEWDELHI_LON NEWDELHI_GRADE NEWDELHI_WIND NEWDELHI_PRES NEWDELHI_CI NEWDELHI_DP NEWDELHI_POCI REUNION_LAT REUNION_LON REUNION_TYPE REUNION_WIND REUNION_PRES REUNION_TNUM REUNION_CI REUNION_RMW REUNION_R34_NE REUNION_R34_SE REUNION_R34_SW REUNION_R34_NW REUNION_R50_NE REUNION_R50_SE REUNION_R50_SW REUNION_R50_NW REUNION_R64_NE REUNION_R64_SE REUNION_R64_SW REUNION_R64_NW BOM_LAT BOM_LON BOM_TYPE BOM_WIND BOM_PRES BOM_TNUM BOM_CI BOM_RMW BOM_R34_NE BOM_R34_SE BOM_R34_SW BOM_R34_NW BOM_R50_NE BOM_R50_SE BOM_R50_SW BOM_R50_NW BOM_R64_NE BOM_R64_SE BOM_R64_SW BOM_R64_NW BOM_ROCI BOM_POCI BOM_EYE BOM_POS_METHOD BOM_PRES_METHOD NADI_LAT NADI_LON NADI_CAT NADI_WIND NADI_PRES WELLINGTON_LAT WELLINGTON_LON WELLINGTON_WIND WELLINGTON_PRES DS824_LAT DS824_LON DS824_STAGE DS824_WIND DS824_PRES TD9636_LAT TD9636_LON TD9636_STAGE TD9636_WIND TD9636_PRES TD9635_LAT TD9635_LON TD9635_WIND TD9635_PRES TD9635_ROCI NEUMANN_LAT NEUMANN_LON NEUMANN_CLASS NEUMANN_WIND NEUMANN_PRES MLC_LAT MLC_LON MLC_CLASS MLC_WIND MLC_PRES USA_GUST BOM_GUST BOM_GUST_PER REUNION_GUST REUNION_GUST_PER USA_SEAHGT USA_SEARAD_NE USA_SEARAD_SE USA_SEARAD_SW USA_SEARAD_NW STORM_SPEED STORM_DIR
1966290N12263 1966 97 EP MM MAGGIE 1966-10-16 12:00:00 TS 11.5000 -97.1000 25 hurdat_epa main 462 434 O________OO___ hurdat_epa EP131966 11.5000 -97.1000 TD 25 -1 11.5000 -97.1000 TC 25 11.5000 -97.1000 1 11 308
1966290N12263 1966 97 EP MM MAGGIE 1966-10-16 15:00:00 TS 11.8493 -97.5574 main 438 405 P________PP___ EP131966 11.8552 -97.5672 TD 25 -1 11.8552 -97.5672 TC 25 11.8256 -97.5181 1 11 309
1966290N12263 1966 97 EP MM MAGGIE 1966-10-16 18:00:00 TS 12.1921 -97.9859 25 hurdat_epa main 409 392 O________OP___ hurdat_epa EP131966 12.2000 -98.0000 TD 25 -1 12.2000 -98.0000 TC 25 12.1607 -97.9294 1 10 311
1966290N12263 1966 97 EP MM MAGGIE 1966-10-16 21:00:00 TS 12.5310 -98.3633 main 397 360 P________PP___ EP131966 12.5349 -98.3727 TD 25 -1 12.5349 -98.3727 TC 25 12.5154 -98.3259 1 10 315
1966290N12263 1966 97 EP MM MAGGIE 1966-10-17 00:00:00 TS 12.9000 -98.7000 25 hurdat_epa main 360 328 O________OO___ hurdat_epa EP131966 12.9000 -98.7000 TD 25 -1 12.9000 -98.7000 TC 25 12.9000 -98.7000 1 10 322
1966290N12263 1966 97 EP MM MAGGIE 1966-10-17 03:00:00 TS 13.3378 -99.0094 main 328 289 P________PP___ EP131966 13.3424 -99.0001 TD 25 -1 13.3424 -99.0001 TC 25 13.3194 -99.0467 1 11 326
1966290N12263 1966 97 EP MM MAGGIE 1966-10-17 06:00:00 TS 13.7914 -99.3146 25 hurdat_epa main 289 258 O________OP___ hurdat_epa EP131966 13.8000 -99.3000 TD 25 -1 13.8000 -99.3000 TC 25 13.7571 -99.3727 1 11 324
1966290N12263 1966 97 EP MM MAGGIE 1966-10-17 09:00:00 TS 14.2103 -99.6575 main 263 237 P________PP___ EP131966 14.2150 -99.6500 TD 25 -1 14.2150 -99.6500 TC 25 14.1913 -99.6874 1 11 321
1966290N12263 1966 97 EP MM MAGGIE 1966-10-17 12:00:00 TS 14.6000 -100.000 25 hurdat_epa main 237 208 O________OO___ hurdat_epa EP131966 14.6000 -100.000 TD 25 -1 14.6000 -100.000 TC 25 14.6000 -100.000 1 10 320
1966290N12263 1966 97 EP MM MAGGIE 1966-10-17 15:00:00 TS 14.9610 -100.302 main 200 183 P________PP___ EP131966 14.9649 -100.300 TD 25 -1 14.9649 -100.300 TC 25 14.9453 -100.310 1 9 320
1966290N12263 1966 97 EP MM MAGGIE 1966-10-17 18:00:00 TS 15.2929 -100.604 25 hurdat_epa main 183 173 O________OP___ hurdat_epa EP131966 15.3000 -100.600 TD 25 -1 15.3000 -100.600 TC 25 15.2645 -100.621 1 9 316
1966290N12263 1966 97 EP MM MAGGIE 1966-10-17 21:00:00 TS 15.5953 -100.938 main 173 154 P________PP___ EP131966 15.5999 -100.935 TD 25 -1 15.5999 -100.935 TC 25 15.5765 -100.947 1 9 312
1966290N12263 1966 97 EP MM MAGGIE 1966-10-18 00:00:00 TS 15.9000 -101.300 25 hurdat_epa main 154 134 O________OO___ hurdat_epa EP131966 15.9000 -101.300 TD 25 -1 15.9000 -101.300 TC 25 15.9000 -101.300 2 10 312
1966290N12263 1966 97 EP MM MAGGIE 1966-10-18 03:00:00 TS 16.2376 -101.686 main 138 123 P________PP___ EP131966 16.2349 -101.685 TD 35 0 16.2349 -101.685 TC 35 16.2483 -101.689 2 10 312
1966290N12263 1966 97 EP MM MAGGIE 1966-10-18 06:00:00 TS 16.6025 -102.101 45 hurdat_epa main 128 102 O________OP___ hurdat_epa EP131966 16.6000 -102.100 TS 45 0 16.6000 -102.100 TC 45 16.6123 -102.106 2 11 313
1966290N12263 1966 97 EP MM MAGGIE 1966-10-18 09:00:00 TS 16.9929 -102.537 main 102 74 P________PP___ EP131966 16.9924 -102.535 TS 45 0 16.9924 -102.535 TC 45 16.9951 -102.545 2 12 313
1966290N12263 1966 97 EP MM MAGGIE 1966-10-18 12:00:00 TS 17.4000 -103.000 45 hurdat_epa main 79 54 O________OO___ hurdat_epa EP131966 17.4000 -103.000 TS 45 0 17.4000 -103.000 TC 45 17.4000 -103.000 2 12 311
1966290N12263 1966 97 EP MM MAGGIE 1966-10-18 15:00:00 TS 17.7937 -103.493 main 54 38 P________PP___ EP131966 17.7850 -103.500 TS 45 0 17.7850 -103.500 TC 45 17.8286 -103.465 2 12 311
1966290N12263 1966 97 EP MM MAGGIE 1966-10-18 18:00:00 TS 18.2120 -103.990 45 hurdat_epa main 53 45 O________OP___ hurdat_epa EP131966 18.2000 -104.000 TS 45 0 18.2000 -104.000 TC 45 18.2759 -103.938 2 13 313
1966290N12263 1966 97 EP MM MAGGIE 1966-10-18 21:00:00 TS 18.6773 -104.486 main 39 10 P________PP___ EP131966 18.6701 -104.495 TS 45 0 18.6701 -104.495 TC 45 18.7353 -104.417 2 13 319
1966290N12263 1966 97 EP MM MAGGIE 1966-10-19 00:00:00 TS 19.2000 -104.900 45 hurdat_epa main 10 0 O________OO___ hurdat_epa EP131966 19.2000 -104.900 TS 45 0 19.2000 -104.900 TC 45 19.2000 -104.900 2 13 329
1966290N12263 1966 97 EP MM MAGGIE 1966-10-19 03:00:00 TS 19.7624 -105.182 main 0 0 P________P____ EP131966 19.7624 -105.182 TS 35 0 19.7624 -105.182 TC 35 2 13 343
1966290N12263 1966 97 EP MM MAGGIE 1966-10-19 06:00:00 MX 20.4000 -105.300 25 hurdat_epa main 0 0 O________O____ hurdat_epa EP131966 20.4000 -105.300 TD 25 -1 20.4000 -105.300 25 2 14 358
1966290N12263 1966 97 EP MM MAGGIE 1966-10-19 09:00:00 MX 21.1251 -105.248 main 0 0 P________P____ EP131966 21.1251 -105.248 TD 25 -1 21.1251 -105.248 25 2 15 7
1966290N12263 1966 97 EP MM MAGGIE 1966-10-19 12:00:00 MX 21.9000 -105.100 25 hurdat_epa main 0 O________O____ hurdat_epa EP131966 21.9000 -105.100 TD 25 -1 21.9000 -105.100 25 16 10

IBTrACS Databaseについて

本データベースは、米国NOAAが公開する1842年以降の世界の熱帯低気圧のベストトラックデータアーカイブInternational Best Track Archive for Climate Stewardship (IBTrACS)を、ウェブで閲覧しやすい形式に変換したものです。

最終更新日:2021-10-21